Time;durP1;ratioP1;P1;durP2;ratioP2;P2;SDS_P1;SDS_P2;PMS_P1;PMS_P2;Temp;Humidity;BMP_temperature;BMP_pressure;BME280_temperature;BME280_humidity;BME280_pressure;Samples;Min_cycle;Max_cycle;Signal;HPM_P1;HPM_P2
2021/07/09 05:05:32;;;;;;;18.97;12.67;;;;;;;18.55;100.00;100796.55;5407379;53;47081;-76
2021/07/09 05:10:38;;;;;;;36.27;12.43;;;;;;;18.53;100.00;100799.05;5131501;55;1141026;-74
2021/07/09 05:15:44;;;;;;;14.63;10.88;;;;;;;18.60;100.00;100808.16;4915647;58;1144944;-78
2021/07/09 05:20:49;;;;;;;19.20;10.38;;;;;;;18.66;100.00;100824.89;5185316;54;1145084;-77
2021/07/09 05:25:56;;;;;;;17.62;9.15;;;;;;;18.69;100.00;100843.33;5223917;54;1144903;-76
2021/07/09 05:31:01;;;;;;;20.27;11.63;;;;;;;18.76;100.00;100836.83;5227692;55;1142822;-81
2021/07/09 05:36:07;;;;;;;19.82;10.80;;;;;;;18.84;100.00;100818.06;5227430;55;1144923;-84
2021/07/09 05:41:13;;;;;;;19.30;8.95;;;;;;;18.88;100.00;100821.60;5227662;55;1144907;-79
2021/07/09 05:46:19;;;;;;;18.57;9.48;;;;;;;18.93;100.00;100847.42;5228534;55;1143034;-86
2021/07/09 05:51:25;;;;;;;10.50;9.18;;;;;;;18.93;100.00;100845.23;5228531;55;1143107;-83
2021/07/09 05:56:31;;;;;;;19.98;10.60;;;;;;;18.96;100.00;100877.89;5229809;55;1143086;-89
2021/07/09 06:01:37;;;;;;;11.33;8.40;;;;;;;18.96;100.00;100909.22;5229446;55;1145245;-80
2021/07/09 06:06:43;;;;;;;24.32;10.13;;;;;;;19.00;100.00;100897.67;5228233;55;1143535;-81
2021/07/09 06:11:49;;;;;;;22.58;10.43;;;;;;;18.98;100.00;100915.25;5228472;55;1145391;-80
2021/07/09 06:16:54;;;;;;;13.65;9.40;;;;;;;19.04;100.00;100881.61;5226173;55;1145098;-79
2021/07/09 06:22:01;;;;;;;15.85;8.40;;;;;;;19.08;100.00;100870.89;5226173;55;1142891;-86
2021/07/09 06:27:07;;;;;;;12.33;8.10;;;;;;;19.14;100.00;100847.42;5227096;55;1142849;-79
2021/07/09 06:32:12;;;;;;;13.75;9.23;;;;;;;19.23;100.00;100824.48;5227402;55;1142738;-81
2021/07/09 06:37:18;;;;;;;12.28;7.88;;;;;;;19.37;100.00;100831.52;5227281;55;1142840;-80
2021/07/09 06:42:23;;;;;;;15.98;8.35;;;;;;;19.42;100.00;100860.00;5227033;55;1143013;-81
2021/07/09 06:47:29;;;;;;;14.46;10.86;;;;;;;19.39;100.00;100863.88;5226091;55;1143020;-79
2021/07/09 06:52:35;;;;;;;13.13;8.40;;;;;;;19.51;100.00;100829.03;5226228;55;1144932;-77
2021/07/09 06:57:46;;;;;;;8.75;6.92;;;;;;;19.65;100.00;100832.36;5206452;55;1143036;-80
2021/07/09 07:02:49;;;;;;;10.48;6.25;;;;;;;19.82;100.00;100816.23;5138890;56;1141085;-82
2021/07/09 07:07:55;;;;;;;10.82;5.53;;;;;;;19.96;100.00;100765.34;5138743;55;1143064;-80
2021/07/09 07:13:00;;;;;;;5.60;4.87;;;;;;;20.03;100.00;100683.58;5206498;55;1142916;-83
2021/07/09 07:18:12;;;;;;;7.58;5.30;;;;;;;20.08;100.00;100642.78;5226617;55;1140760;-88
2021/07/09 07:23:20;;;;;;;6.53;5.53;;;;;;;20.07;100.00;100615.09;5226567;55;1140696;-83
2021/07/09 07:28:26;;;;;;;5.74;5.24;;;;;;;20.05;100.00;100636.41;5235424;55;1140896;-77
2021/07/09 07:33:32;;;;;;;6.27;5.43;;;;;;;20.06;100.00;100582.53;5225963;55;1140784;-80
2021/07/09 07:38:37;;;;;;;5.97;5.47;;;;;;;20.09;100.00;100562.05;5226754;55;1140960;-83
2021/07/09 07:43:43;;;;;;;7.97;7.17;;;;;;;20.02;100.00;100535.06;5226172;55;1140904;-80
2021/07/09 20:29:08;;;;;;;16.67;12.50;;;;;;;21.34;91.12;100511.56;5133499;54;46575;-81
2021/07/09 20:34:13;;;;;;;18.02;12.65;;;;;;;21.27;91.17;100507.11;4994724;56;1138715;-80
2021/07/09 20:39:20;;;;;;;17.87;12.40;;;;;;;21.24;91.08;100533.88;5102848;55;1143079;-84
2021/07/09 20:44:26;;;;;;;14.83;11.65;;;;;;;21.22;91.17;100531.08;5164785;55;1143055;-80
2021/07/09 20:49:33;;;;;;;19.05;11.97;;;;;;;21.21;91.25;100534.78;5164774;55;1143068;-79
2021/07/09 20:54:39;;;;;;;21.95;11.48;;;;;;;21.17;91.21;100538.83;5159369;55;1143200;-79
2021/07/09 20:59:45;;;;;;;24.72;12.05;;;;;;;21.18;91.38;100534.61;5154197;55;1143286;-81
2021/07/09 21:04:51;;;;;;;30.37;10.28;;;;;;;21.17;91.34;100538.83;5161277;55;1143098;-81
2021/07/09 21:09:57;;;;;;;22.40;10.20;;;;;;;21.18;91.61;100539.98;5149768;55;1143092;-81
2021/07/09 21:15:04;;;;;;;19.82;12.45;;;;;;;21.04;91.66;100564.53;5123619;55;1142820;-76
2021/07/09 21:20:12;;;;;;;22.77;11.97;;;;;;;20.81;92.13;100558.39;5164826;55;1142971;-74
2021/07/09 21:25:18;;;;;;;13.22;9.83;;;;;;;20.69;93.48;100561.21;5165111;55;1142942;-79
2021/07/09 21:30:23;;;;;;;12.85;9.48;;;;;;;20.68;93.42;100551.47;5165353;55;1140931;-78
2021/07/09 21:35:29;;;;;;;11.38;7.97;;;;;;;20.66;93.65;100536.88;5160249;55;1141586;-83
2021/07/09 21:40:36;;;;;;;10.82;5.97;;;;;;;20.62;93.80;100540.94;5125169;55;1140934;-84
2021/07/09 21:45:42;;;;;;;7.53;3.55;;;;;;;20.52;94.07;100537.69;5082401;56;1140878;-82
2021/07/09 21:50:48;;;;;;;5.77;3.53;;;;;;;20.31;92.19;100520.92;5179102;55;1138769;-82
2021/07/09 21:55:54;;;;;;;2.90;2.70;;;;;;;20.20;91.77;100517.30;5187486;55;1138770;-82
2021/07/09 22:01:00;;;;;;;3.33;3.03;;;;;;;20.08;91.66;100509.86;5187383;55;1138795;-82
2021/07/09 22:06:06;;;;;;;4.83;3.67;;;;;;;19.87;91.51;100507.33;5186499;55;1138896;-86
2021/07/09 22:11:13;;;;;;;4.75;3.65;;;;;;;19.79;91.85;100487.78;5169798;55;1138943;-80
2021/07/09 22:16:19;;;;;;;7.97;2.83;;;;;;;19.68;92.06;100483.68;5170492;55;1138754;-80
2021/07/09 22:21:25;;;;;;;3.02;2.40;;;;;;;19.56;91.75;100484.58;5167448;55;1139039;-81
2021/07/09 22:26:31;;;;;;;3.62;3.27;;;;;;;19.47;91.62;100484.78;5163987;55;1139275;-84
2021/07/09 22:31:37;;;;;;;5.35;2.83;;;;;;;19.30;91.56;100487.56;5154421;55;1139396;-86
2021/07/09 22:36:44;;;;;;;2.70;2.50;;;;;;;19.17;91.68;100498.53;5030967;56;1138908;-78
2021/07/09 22:41:49;;;;;;;3.00;2.55;;;;;;;19.04;91.99;100521.88;5033398;56;1138969;-84
2021/07/09 22:46:55;;;;;;;4.55;3.45;;;;;;;19.00;92.05;100527.75;5034464;56;1138848;-86
2021/07/09 22:52:01;;;;;;;4.33;3.10;;;;;;;18.94;91.99;100544.04;5061267;56;1139112;-78
2021/07/09 22:57:07;;;;;;;2.98;2.72;;;;;;;18.87;92.06;100569.84;4990853;57;1138855;-80
2021/07/09 23:02:12;;;;;;;9.40;3.40;;;;;;;18.85;91.90;100579.89;5065309;56;1138948;-82
2021/07/09 23:07:18;;;;;;;3.65;3.33;;;;;;;18.87;91.90;100582.73;5069503;57;1138786;-83
2021/07/09 23:12:24;;;;;;;5.90;3.30;;;;;;;18.87;91.79;100589.94;5069302;57;1138724;-86
2021/07/09 23:17:30;;;;;;;3.33;3.12;;;;;;;18.85;91.68;100583.41;5069144;57;1138951;-86
2021/07/09 23:22:37;;;;;;;8.95;3.35;;;;;;;18.70;91.75;100585.11;4991420;57;1138830;-86
2021/07/09 23:27:45;;;;;;;4.70;4.24;;;;;;;18.59;92.21;100584.12;5087777;56;1138837;-77
2021/07/09 23:32:51;;;;;;;9.63;4.13;;;;;;;18.47;92.44;100584.95;5215693;55;1138952;-83
2021/07/09 23:37:57;;;;;;;9.93;4.45;;;;;;;18.40;92.87;100589.80;5215806;55;1138912;-76
2021/07/09 23:43:02;;;;;;;8.58;4.70;;;;;;;18.33;93.41;100580.27;5216322;55;1138808;-77
2021/07/09 23:48:08;;;;;;;5.86;4.40;;;;;;;18.28;93.58;100577.25;5215029;55;1138723;-75
2021/07/09 23:53:14;;;;;;;4.20;3.80;;;;;;;18.27;93.46;100582.27;5214743;55;1138712;-82
2021/07/09 23:58:20;;;;;;;9.90;5.03;;;;;;;18.25;93.79;100582.94;5214404;55;1138736;-82
